East Northport, New York
Current Conditions -  °F | °C
As of 7:33 AM on Monday 26 Jan 2015 (Local Time) from KFRG Reporting Station
Light Snow Light Snow  
Wind Chill: 13°   Ceiling: 2800
Heat Index: 24°   Visibility: 2mi
Dew Point: 16°   Wind: 12mph
Humidity: 71%   Direction: 60°ENE
Pressure: 30"   Gusts: NA
Location:  40.88°N, 73.31°W
Report Text: KFRG 261233Z 06010KT 2SM -SN OVC028 M04/M09 A3000 RMK AO2 P0000 T10441089
Loading
Personal Weather Stations






























Interactive Weather Map New forecast layout! Learn more

10-Day Weather Forecast

Advertisements
Track Severe Weather on mobile